createdAt,value
2019-05-01T15:21:21.891Z,13269
2019-05-01T15:26:47.676Z,13385
2019-05-01T15:32:11.388Z,13439
2019-05-01T15:42:54.562Z,13477
2019-05-01T15:48:16.249Z,13431
2019-05-01T15:53:38.579Z,13525
2019-05-01T15:58:58.931Z,13392
2019-05-01T16:04:19.327Z,13577
2019-05-01T16:09:35.453Z,13458
2019-05-01T16:14:54.364Z,13539
2019-05-01T16:20:17.458Z,13555
2019-05-01T16:25:31.105Z,13549
2019-05-01T16:30:49.161Z,13550
2019-05-01T16:36:04.498Z,13562
2019-05-01T16:41:22.293Z,13638
2019-05-01T16:46:36.973Z,13623
2019-05-01T16:51:53.380Z,13607
2019-05-01T16:57:09.053Z,13607
2019-05-01T17:02:24.035Z,13624
2019-05-01T17:07:42.690Z,13627
2019-05-01T17:12:58.129Z,13587
2019-05-01T17:18:14.216Z,13613
2019-05-01T17:23:30.074Z,13619
2019-05-01T17:28:45.551Z,13660
2019-05-01T17:34:01.953Z,13627
2019-05-01T17:39:24.869Z,13663
2019-05-01T17:44:40.370Z,13691
2019-05-01T17:49:55.578Z,13665
2019-05-01T17:55:11.850Z,13657
2019-05-01T18:00:28.236Z,13705
2019-05-01T18:05:42.757Z,13673
2019-05-01T18:11:02.058Z,13666
2019-05-01T18:16:14.912Z,13665
2019-05-01T18:21:29.989Z,13627
2019-05-01T18:26:47.008Z,13649
2019-05-01T18:32:10.117Z,13612
2019-05-01T18:37:36.287Z,13623
2019-05-01T18:42:51.773Z,13576
2019-05-01T18:48:07.041Z,13575
2019-05-01T18:53:23.206Z,13542
2019-05-01T18:58:40.907Z,13538
2019-05-01T19:03:57.816Z,13559
2019-05-01T19:09:28.715Z,13532
2019-05-01T19:14:43.992Z,13546
2019-05-01T19:19:59.152Z,13522
2019-05-01T19:25:18.411Z,13526
2019-05-01T19:30:33.379Z,13542
2019-05-01T19:35:48.566Z,13557
2019-05-01T19:41:13.869Z,13532
2019-05-01T19:46:28.006Z,13537
2019-05-01T19:51:43.561Z,13532
2019-05-01T19:56:58.953Z,13528
2019-05-01T20:02:21.997Z,13557
2019-05-01T20:07:37.672Z,13546
2019-05-01T20:12:55.770Z,13530
2019-05-01T20:18:11.653Z,13524
2019-05-01T20:23:33.219Z,13537
2019-05-01T20:28:50.083Z,13523
2019-05-01T20:34:03.717Z,13508
2019-05-01T20:39:17.443Z,13552
2019-05-01T20:44:35.789Z,13536
2019-05-01T20:49:51.835Z,13620
2019-05-01T20:55:07.149Z,13722
2019-05-01T21:00:22.331Z,13562
2019-05-01T21:05:39.001Z,13545
2019-05-01T21:10:55.635Z,13608
2019-05-01T21:16:11.381Z,13549
2019-05-01T21:21:25.706Z,13515
2019-05-01T21:26:40.459Z,13563
2019-05-01T21:31:56.781Z,13497
2019-05-01T21:37:12.315Z,13526
2019-05-01T21:42:26.889Z,13536
2019-05-01T21:47:43.219Z,13487
2019-05-01T21:53:06.939Z,13498
2019-05-01T21:58:26.224Z,13519
2019-05-01T22:03:57.019Z,13499
2019-05-01T22:09:16.518Z,13537
2019-05-01T22:14:37.366Z,13472
2019-05-01T22:19:52.020Z,13573
2019-05-01T22:25:08.509Z,13495
2019-05-01T22:30:30.932Z,13484
2019-05-01T22:35:47.357Z,13474
2019-05-01T22:41:07.522Z,13477
2019-05-01T22:46:25.302Z,13512
2019-05-01T22:51:40.302Z,13478
2019-05-01T22:56:57.004Z,13458
2019-05-01T23:02:12.833Z,13468
2019-05-01T23:07:33.310Z,13504
2019-05-01T23:12:55.366Z,13470
2019-05-01T23:18:17.335Z,13482
2019-05-01T23:23:31.858Z,13496
2019-05-01T23:28:47.789Z,13430
2019-05-01T23:34:05.147Z,13440
2019-05-01T23:39:21.562Z,13453
2019-05-01T23:44:42.872Z,13452
2019-05-01T23:49:57.147Z,13449
2019-05-01T23:55:13.449Z,13486
